Wetterdaten: Woche 30.01.06 - 05.02.06 (KW5)
Datum Zeit Temperatur Luftfeuchte Luftdruck Niederschlag Wind Richtung Sonne Solar Taupunkt Windchill
30.01.2006 00:00 -3.5 C 83 % 1027.0 hPa 0.0 l/m 1.5 km/h (1 Bft) O-SO 0.00 h 0 W/m -5.9 C -3.9 C
30.01.2006 01:00 -2.9 C 74 % 1027.3 hPa 0.0 l/m 6.2 km/h (2 Bft) O-SO 0.00 h 0 W/m -6.8 C -5.0 C
30.01.2006 02:00 -3.0 C 67 % 1026.7 hPa 0.0 l/m 1.9 km/h (1 Bft) O-SO 0.00 h 0 W/m -8.3 C -3.5 C
30.01.2006 03:00 -3.9 C 68 % 1026.5 hPa 0.0 l/m 0.3 km/h (0 Bft) SO 0.00 h 0 W/m -8.9 C -3.9 C
30.01.2006 04:00 -4.3 C 69 % 1026.5 hPa 0.0 l/m 1.1 km/h (1 Bft) SO 0.00 h 0 W/m -9.2 C -4.6 C
30.01.2006 05:00 -4.8 C 70 % 1026.6 hPa 0.0 l/m 0.7 km/h (0 Bft) SO 0.00 h 0 W/m -9.5 C -5.1 C
30.01.2006 06:00 -4.6 C 70 % 1026.6 hPa 0.0 l/m 4.4 km/h (1 Bft) O-SO 0.00 h 0 W/m -9.2 C -6.3 C
30.01.2006 07:00 -4.6 C 69 % 1026.6 hPa 0.0 l/m 3.5 km/h (1 Bft) O-SO 0.00 h 0 W/m -9.4 C -6.0 C
30.01.2006 08:00 -4.4 C 68 % 1027.0 hPa 0.0 l/m 4.5 km/h (1 Bft) O-SO 0.00 h 36 W/m -9.3 C -6.2 C
30.01.2006 09:00 -3.0 C 63 % 1027.4 hPa 0.0 l/m 8.0 km/h (2 Bft) O-SO 0.25 h 130 W/m -9.1 C -5.9 C
30.01.2006 10:00 -1.5 C 59 % 1027.1 hPa 0.0 l/m 9.1 km/h (2 Bft) O-SO 0.93 h 238 W/m -8.5 C -4.3 C
30.01.2006 11:00 -0.2 C 55 % 1026.2 hPa 0.0 l/m 12.8 km/h (3 Bft) O-SO 1.00 h 332 W/m -8.2 C -4.1 C
30.01.2006 12:00 1.3 C 50 % 1025.4 hPa 0.0 l/m 11.8 km/h (2 Bft) O-SO 1.00 h 374 W/m -7.9 C -2.0 C
30.01.2006 13:00 2.7 C 46 % 1024.4 hPa 0.0 l/m 12.3 km/h (3 Bft) O-SO 1.00 h 369 W/m -7.6 C -0.4 C
30.01.2006 14:00 3.5 C 43 % 1023.3 hPa 0.0 l/m 13.9 km/h (3 Bft) O-SO 1.00 h 303 W/m -7.9 C 0.2 C
30.01.2006 15:00 3.7 C 43 % 1023.2 hPa 0.0 l/m 8.7 km/h (2 Bft) O-SO 1.00 h 204 W/m -7.7 C 1.6 C
30.01.2006 16:00 2.8 C 47 % 1022.4 hPa 0.0 l/m 10.3 km/h (2 Bft) O-SO 0.08 h 71 W/m -7.4 C 0.0 C
30.01.2006 17:00 1.0 C 55 % 1023.5 hPa 0.0 l/m 10.4 km/h (2 Bft) O-SO 0.03 h 13 W/m -7.0 C -2.1 C
30.01.2006 18:00 -0.1 C 59 % 1023.8 hPa 0.0 l/m 7.7 km/h (2 Bft) O-SO 0.00 h 0 W/m -7.0 C -2.4 C
30.01.2006 19:00 -0.1 C 59 % 1023.8 hPa 0.0 l/m 7.7 km/h (2 Bft) O-SO 0.00 h 0 W/m -7.1 C -2.4 C
30.01.2006 20:00 -0.8 C 62 % 1023.9 hPa 0.0 l/m 2.1 km/h (1 Bft) O-SO 0.00 h 0 W/m -7.3 C -1.3 C
30.01.2006 21:00 -2.3 C 70 % 1024.8 hPa 0.0 l/m 0.0 km/h (0 Bft) N 0.00 h 0 W/m -7.1 C -2.3 C
30.01.2006 22:00 -2.8 C 76 % 1024.2 hPa 0.0 l/m 0.1 km/h (0 Bft) O-SO 0.00 h 0 W/m -6.5 C -2.8 C
30.01.2006 23:00 -2.6 C 78 % 1024.2 hPa 0.0 l/m 1.3 km/h (1 Bft) O-SO 0.00 h 0 W/m -5.9 C -3.0 C
31.01.2006 00:00 -2.6 C 71 % 1024.2 hPa 0.0 l/m 0.1 km/h (0 Bft) N 0.00 h 0 W/m -7.1 C -2.6 C
31.01.2006 01:00 -3.6 C 76 % 1024.3 hPa 0.0 l/m 0.1 km/h (0 Bft) O-SO 0.00 h 0 W/m -7.3 C -3.6 C
31.01.2006 02:00 -3.8 C 77 % 1025.4 hPa 0.0 l/m 1.2 km/h (1 Bft) O-SO 0.00 h 0 W/m -7.2 C -4.2 C
31.01.2006 03:00 -4.6 C 80 % 1025.3 hPa 0.0 l/m 0.0 km/h (0 Bft) N 0.00 h 0 W/m -7.6 C -4.6 C
31.01.2006 04:00 -5.3 C 83 % 1025.2 hPa 0.0 l/m 0.2 km/h (0 Bft) O-SO 0.00 h 0 W/m -7.7 C -5.3 C
31.01.2006 05:00 -5.4 C 84 % 1025.7 hPa 0.0 l/m 0.0 km/h (0 Bft) N 0.00 h 0 W/m -7.8 C -5.4 C
31.01.2006 06:00 -5.7 C 83 % 1025.7 hPa 0.0 l/m 1.2 km/h (1 Bft) O-SO 0.00 h 0 W/m -8.1 C -6.0 C
31.01.2006 07:00 -6.2 C 82 % 1025.8 hPa 0.0 l/m 0.4 km/h (0 Bft) O-SO 0.00 h 0 W/m -8.8 C -6.2 C
31.01.2006 08:00 -6.3 C 81 % 1025.8 hPa 0.0 l/m 0.1 km/h (0 Bft) N 0.00 h 34 W/m -8.9 C -6.3 C
31.01.2006 09:00 -4.6 C 84 % 1025.5 hPa 0.0 l/m 0.0 km/h (0 Bft) N 0.42 h 142 W/m -6.9 C -4.6 C
31.01.2006 10:00 -2.7 C 77 % 1026.3 hPa 0.0 l/m 0.1 km/h (0 Bft) N 0.97 h 255 W/m -6.2 C -2.7 C
31.01.2006 11:00 0.2 C 63 % 1025.8 hPa 0.0 l/m 2.4 km/h (1 Bft) O 1.00 h 363 W/m -6.1 C -0.4 C
31.01.2006 12:00 1.9 C 55 % 1024.5 hPa 0.0 l/m 4.2 km/h (1 Bft) W-NW 1.00 h 413 W/m -6.2 C 0.8 C
31.01.2006 13:00 3.2 C 50 % 1024.1 hPa 0.0 l/m 3.0 km/h (1 Bft) W-NW 1.00 h 372 W/m -6.1 C 2.5 C
31.01.2006 14:00 4.7 C 45 % 1023.1 hPa 0.0 l/m 6.2 km/h (2 Bft) O-SO 0.65 h 257 W/m -6.3 C 3.5 C
31.01.2006 15:00 4.4 C 46 % 1023.1 hPa 0.0 l/m 1.5 km/h (1 Bft) O-SO 1.00 h 204 W/m -6.3 C 4.3 C
31.01.2006 16:00 3.5 C 49 % 1023.3 hPa 0.0 l/m 0.5 km/h (0 Bft) O-SO 0.28 h 73 W/m -6.1 C 3.5 C
31.01.2006 17:00 1.2 C 58 % 1023.6 hPa 0.0 l/m 0.0 km/h (0 Bft) N 0.03 h 14 W/m -6.1 C 1.2 C
31.01.2006 18:00 -1.1 C 68 % 1024.0 hPa 0.0 l/m 0.6 km/h (0 Bft) SO 0.00 h 0 W/m -6.4 C -1.2 C
31.01.2006 19:00 -2.7 C 76 % 1024.2 hPa 0.0 l/m 0.5 km/h (0 Bft) SO 0.00 h 0 W/m -6.4 C -2.8 C
31.01.2006 20:00 -3.5 C 81 % 1024.3 hPa 0.0 l/m 0.0 km/h (0 Bft) N 0.00 h 0 W/m -6.2 C -3.5 C
31.01.2006 21:00 -4.1 C 83 % 1024.4 hPa 0.0 l/m 0.0 km/h (0 Bft) N 0.00 h 0 W/m -6.6 C -4.1 C
31.01.2006 22:00 -4.4 C 83 % 1024.5 hPa 0.0 l/m 0.0 km/h (0 Bft) N 0.00 h 0 W/m -6.9 C -4.4 C
31.01.2006 23:00 -5.1 C 83 % 1025.3 hPa 0.0 l/m 0.2 km/h (0 Bft) SO 0.00 h 0 W/m -7.6 C -5.1 C
01.02.2006 00:00 -5.5 C 82 % 1025.7 hPa 0.0 l/m 0.4 km/h (0 Bft) SO 0.00 h 0 W/m -8.0 C -5.5 C
01.02.2006 01:00 -5.8 C 83 % 1026.0 hPa 0.0 l/m 2.1 km/h (1 Bft) O-SO 0.00 h 0 W/m -8.2 C -6.5 C
01.02.2006 02:00 -6.7 C 81 % 1026.8 hPa 0.0 l/m 1.6 km/h (1 Bft) O-SO 0.00 h 0 W/m -9.4 C -7.0 C
01.02.2006 03:00 -6.7 C 82 % 1026.8 hPa 0.0 l/m 1.6 km/h (1 Bft) O-SO 0.00 h 0 W/m -9.3 C -7.0 C
01.02.2006 04:00 -7.2 C 81 % 1025.9 hPa 0.0 l/m 1.3 km/h (1 Bft) O-SO 0.00 h 0 W/m -10.0 C -7.3 C
01.02.2006 05:00 -5.7 C 84 % 1025.7 hPa 0.0 l/m 0.0 km/h (0 Bft) N 0.00 h 0 W/m -8.0 C -5.7 C
01.02.2006 06:00 -5.2 C 86 % 1025.6 hPa 0.0 l/m 0.0 km/h (0 Bft) N 0.00 h 0 W/m -7.2 C -5.2 C
01.02.2006 07:00 -4.5 C 88 % 1025.5 hPa 0.0 l/m 0.9 km/h (0 Bft) O-SO 0.00 h 0 W/m -6.1 C -4.7 C
01.02.2006 08:00 -4.9 C 89 % 1025.6 hPa 0.0 l/m 4.2 km/h (1 Bft) O-SO 0.00 h 11 W/m -6.5 C -6.6 C
01.02.2006 09:00 -4.9 C 90 % 1025.6 hPa 0.0 l/m 4.5 km/h (1 Bft) O-SO 0.00 h 44 W/m -6.2 C -6.2 C
01.02.2006 10:00 -4.1 C 89 % 1025.4 hPa 0.0 l/m 3.3 km/h (1 Bft) O-SO 0.00 h 85 W/m -5.6 C -5.0 C
01.02.2006 11:00 -3.1 C 88 % 1025.3 hPa 0.0 l/m 4.9 km/h (1 Bft) O-SO 0.00 h 106 W/m -4.7 C -4.7 C
01.02.2006 12:00 -2.4 C 87 % 1024.1 hPa 0.0 l/m 0.7 km/h (0 Bft) O-SO 0.00 h 126 W/m -4.3 C -2.4 C
01.02.2006 13:00 -1.4 C 83 % 1024.0 hPa 0.0 l/m 2.2 km/h (1 Bft) SO 0.10 h 187 W/m -4.0 C -1.9 C
01.02.2006 14:00 -0.7 C 77 % 1022.9 hPa 0.0 l/m 5.7 km/h (1 Bft) SO 0.85 h 238 W/m -4.1 C -2.5 C
01.02.2006 15:00 -0.7 C 76 % 1022.8 hPa 0.0 l/m 8.1 km/h (2 Bft) SO 0.62 h 159 W/m -4.3 C -3.3 C
01.02.2006 16:00 -1.3 C 80 % 1022.9 hPa 0.0 l/m 6.6 km/h (2 Bft) SO 0.00 h 59 W/m -4.3 C -3.5 C
01.02.2006 17:00 -2.1 C 86 % 1023.3 hPa 0.0 l/m 10.1 km/h (2 Bft) SO 0.00 h 15 W/m -4.1 C -5.7 C
01.02.2006 18:00 -2.2 C 89 % 1024.1 hPa 0.0 l/m 8.3 km/h (2 Bft) SO 0.00 h 0 W/m -3.8 C -5.0 C
01.02.2006 19:00 -2.4 C 91 % 1024.1 hPa 0.0 l/m 9.1 km/h (2 Bft) SO 0.00 h 0 W/m -3.7 C -5.8 C
01.02.2006 20:00 -2.6 C 92 % 1024.2 hPa 0.0 l/m 6.2 km/h (2 Bft) SO 0.00 h 0 W/m -3.7 C -4.7 C
01.02.2006 21:00 -2.9 C 93 % 1024.2 hPa 0.0 l/m 4.2 km/h (1 Bft) SO 0.00 h 0 W/m -3.9 C -4.3 C
01.02.2006 22:00 -3.0 C 93 % 1023.5 hPa 0.0 l/m 5.4 km/h (1 Bft) O-SO 0.00 h 0 W/m -4.0 C -4.9 C
01.02.2006 23:00 -3.0 C 93 % 1023.2 hPa 0.0 l/m 1.3 km/h (1 Bft) SO 0.00 h 0 W/m -4.0 C -3.4 C
02.02.2006 00:00 -3.0 C 93 % 1023.2 hPa 0.0 l/m 2.0 km/h (1 Bft) O-SO 0.00 h 0 W/m -4.0 C -3.4 C
02.02.2006 01:00 -3.1 C 92 % 1023.2 hPa 0.0 l/m 2.0 km/h (1 Bft) O-SO 0.00 h 0 W/m -4.2 C -3.7 C
02.02.2006 02:00 -3.2 C 92 % 1023.2 hPa 0.0 l/m 1.0 km/h (0 Bft) O-SO 0.00 h 0 W/m -4.3 C -3.4 C
02.02.2006 03:00 -3.3 C 92 % 1023.2 hPa 0.0 l/m 0.5 km/h (0 Bft) O-SO 0.00 h 0 W/m -4.4 C -3.4 C
02.02.2006 04:00 -3.6 C 91 % 1023.3 hPa 0.0 l/m 0.4 km/h (0 Bft) O-SO 0.00 h 0 W/m -4.8 C -3.6 C
02.02.2006 05:00 -3.6 C 91 % 1022.9 hPa 0.0 l/m 0.3 km/h (0 Bft) S-SO 0.00 h 0 W/m -4.9 C -3.6 C
02.02.2006 06:00 -3.7 C 91 % 1023.2 hPa 0.0 l/m 0.0 km/h (0 Bft) N 0.00 h 0 W/m -4.9 C -3.7 C
02.02.2006 07:00 -4.1 C 91 % 1022.6 hPa 0.0 l/m 0.7 km/h (0 Bft) SO 0.00 h 2 W/m -5.4 C -4.3 C
02.02.2006 08:00 -4.4 C 93 % 1022.4 hPa 0.0 l/m 1.4 km/h (1 Bft) O-SO 0.00 h 9 W/m -5.4 C -4.9 C
02.02.2006 09:00 -4.6 C 94 % 1022.4 hPa 0.0 l/m 4.5 km/h (1 Bft) O-SO 0.00 h 43 W/m -5.4 C -6.3 C
02.02.2006 10:00 -4.7 C 85 % 1022.4 hPa 0.0 l/m 0.5 km/h (0 Bft) O-SO 0.00 h 101 W/m -6.8 C -4.9 C
02.02.2006 11:00 -4.0 C 80 % 1022.3 hPa 0.0 l/m 0.5 km/h (0 Bft) O 0.13 h 177 W/m -6.9 C -4.0 C
02.02.2006 12:00 -2.5 C 77 % 1021.0 hPa 0.0 l/m 0.8 km/h (0 Bft) O 1.00 h 343 W/m -6.0 C -2.5 C
02.02.2006 13:00 -1.2 C 74 % 1020.0 hPa 0.0 l/m 1.3 km/h (1 Bft) S 1.00 h 372 W/m -5.3 C -1.3 C
02.02.2006 14:00 0.1 C 70 % 1019.6 hPa 0.0 l/m 1.1 km/h (1 Bft) O 1.00 h 328 W/m -4.8 C 0.0 C
02.02.2006 15:00 0.9 C 66 % 1019.5 hPa 0.0 l/m 1.2 km/h (1 Bft) O-SO 1.00 h 215 W/m -4.7 C 0.9 C
02.02.2006 16:00 -0.7 C 72 % 1019.7 hPa 0.0 l/m 2.0 km/h (1 Bft) SO 0.03 h 58 W/m -5.2 C -1.2 C
02.02.2006 17:00 -2.6 C 79 % 1020.0 hPa 0.0 l/m 0.3 km/h (0 Bft) SO 0.00 h 13 W/m -5.7 C -2.6 C
02.02.2006 18:00 -3.4 C 84 % 1020.1 hPa 0.0 l/m 2.0 km/h (1 Bft) O-SO 0.00 h 0 W/m -5.7 C -3.9 C
02.02.2006 19:00 -3.6 C 88 % 1020.2 hPa 0.0 l/m 0.1 km/h (0 Bft) SO 0.00 h 0 W/m -5.4 C -3.6 C
02.02.2006 20:00 -3.2 C 89 % 1020.1 hPa 0.0 l/m 0.2 km/h (0 Bft) SO 0.00 h 0 W/m -4.7 C -3.2 C
02.02.2006 21:00 -3.4 C 88 % 1020.1 hPa 0.0 l/m 0.8 km/h (0 Bft) O-SO 0.00 h 0 W/m -5.1 C -3.7 C
02.02.2006 22:00 -3.9 C 89 % 1020.2 hPa 0.0 l/m 1.0 km/h (0 Bft) O-SO 0.00 h 0 W/m -5.4 C -4.0 C
02.02.2006 23:00 -4.1 C 90 % 1020.2 hPa 0.0 l/m 3.9 km/h (1 Bft) O-SO 0.00 h 0 W/m -5.5 C -5.5 C
03.02.2006 00:00 -4.3 C 91 % 1020.3 hPa 0.0 l/m 5.4 km/h (1 Bft) O-SO 0.00 h 0 W/m -5.5 C -6.4 C
03.02.2006 01:00 -4.7 C 90 % 1020.3 hPa 0.0 l/m 6.1 km/h (2 Bft) O-SO 0.00 h 0 W/m -6.1 C -7.0 C
03.02.2006 02:00 -5.1 C 91 % 1020.4 hPa 0.0 l/m 7.4 km/h (2 Bft) O-SO 0.00 h 0 W/m -6.4 C -8.3 C
03.02.2006 03:00 -5.4 C 91 % 1020.1 hPa 0.0 l/m 1.5 km/h (1 Bft) O-SO 0.00 h 0 W/m -6.7 C -6.1 C
03.02.2006 04:00 -5.7 C 90 % 1019.4 hPa 0.0 l/m 5.0 km/h (1 Bft) O-SO 0.00 h 0 W/m -7.1 C -7.8 C
03.02.2006 05:00 -6.2 C 87 % 1019.6 hPa 0.0 l/m 2.5 km/h (1 Bft) O-SO 0.00 h 0 W/m -7.9 C -7.2 C
03.02.2006 06:00 -6.2 C 85 % 1019.9 hPa 0.0 l/m 2.9 km/h (1 Bft) O-SO 0.00 h 0 W/m -8.4 C -7.4 C
03.02.2006 07:00 -6.2 C 83 % 1020.4 hPa 0.0 l/m 1.2 km/h (1 Bft) O-SO 0.00 h 2 W/m -8.6 C -6.6 C
03.02.2006 08:00 -6.2 C 82 % 1020.6 hPa 0.0 l/m 0.9 km/h (0 Bft) O-SO 0.00 h 14 W/m -8.7 C -6.5 C
03.02.2006 09:00 -5.8 C 81 % 1020.5 hPa 0.0 l/m 0.1 km/h (0 Bft) NW 0.00 h 49 W/m -8.5 C -5.8 C
03.02.2006 10:00 -5.8 C 79 % 1020.5 hPa 0.0 l/m 8.3 km/h (2 Bft) W-NW 0.00 h 101 W/m -8.8 C -9.4 C
03.02.2006 11:00 -5.1 C 77 % 1020.1 hPa 0.0 l/m 5.2 km/h (1 Bft) W-NW 0.00 h 133 W/m -8.5 C -6.9 C
03.02.2006 12:00 -3.9 C 75 % 1019.2 hPa 0.0 l/m 1.7 km/h (1 Bft) W-NW 0.00 h 161 W/m -7.7 C -4.5 C
03.02.2006 13:00 -2.9 C 73 % 1019.0 hPa 0.0 l/m 0.1 km/h (0 Bft) W-NW 0.00 h 160 W/m -6.9 C -2.9 C
03.02.2006 14:00 -2.4 C 73 % 1018.2 hPa 0.0 l/m 0.3 km/h (0 Bft) N 0.00 h 157 W/m -6.6 C -2.4 C
03.02.2006 15:00 -1.7 C 72 % 1017.8 hPa 0.0 l/m 0.2 km/h (0 Bft) W-NW 0.30 h 141 W/m -6.1 C -1.7 C
03.02.2006 16:00 -2.0 C 73 % 1017.8 hPa 0.0 l/m 0.8 km/h (0 Bft) NW 0.07 h 69 W/m -6.1 C -2.2 C
03.02.2006 17:00 -3.3 C 75 % 1019.0 hPa 0.0 l/m 0.0 km/h (0 Bft) N 0.00 h 12 W/m -7.1 C -3.3 C
03.02.2006 18:00 -5.0 C 78 % 1019.3 hPa 0.0 l/m 0.0 km/h (0 Bft) N 0.00 h 0 W/m -8.3 C -5.0 C
03.02.2006 19:00 -4.1 C 84 % 1019.2 hPa 0.0 l/m 0.1 km/h (0 Bft) N 0.00 h 0 W/m -6.5 C -4.1 C
03.02.2006 20:00 -4.2 C 81 % 1019.9 hPa 0.0 l/m 0.1 km/h (0 Bft) N 0.00 h 0 W/m -6.9 C -4.2 C
03.02.2006 21:00 -4.3 C 80 % 1020.3 hPa 0.0 l/m 0.2 km/h (0 Bft) N 0.00 h 0 W/m -7.2 C -4.3 C
03.02.2006 22:00 -4.6 C 81 % 1020.3 hPa 0.0 l/m 1.3 km/h (1 Bft) NW 0.00 h 0 W/m -7.4 C -4.8 C
03.02.2006 23:00 -4.9 C 80 % 1020.4 hPa 0.0 l/m 0.8 km/h (0 Bft) NW 0.00 h 0 W/m -7.8 C -5.1 C
04.02.2006 00:00 -5.5 C 81 % 1021.4 hPa 0.0 l/m 0.7 km/h (0 Bft) W-NW 0.00 h 0 W/m -8.2 C -5.7 C
04.02.2006 01:00 -5.5 C 80 % 1021.5 hPa 0.0 l/m 1.6 km/h (1 Bft) W-NW 0.00 h 0 W/m -8.4 C -5.9 C
04.02.2006 02:00 -5.7 C 80 % 1021.6 hPa 0.0 l/m 0.6 km/h (0 Bft) NW 0.00 h 0 W/m -8.6 C -5.8 C
04.02.2006 03:00 -5.7 C 80 % 1021.7 hPa 0.0 l/m 1.5 km/h (1 Bft) NW 0.00 h 0 W/m -8.6 C -6.0 C
04.02.2006 04:00 -5.7 C 78 % 1021.5 hPa 0.0 l/m 4.8 km/h (1 Bft) W-NW 0.00 h 0 W/m -8.9 C -7.6 C
04.02.2006 05:00 -5.6 C 77 % 1021.6 hPa 0.0 l/m 0.4 km/h (0 Bft) NW 0.00 h 0 W/m -9.0 C -5.6 C
04.02.2006 06:00 -5.6 C 72 % 1022.4 hPa 0.0 l/m 0.0 km/h (0 Bft) N 0.00 h 0 W/m -9.8 C -5.6 C
04.02.2006 07:00 -5.7 C 70 % 1022.6 hPa 0.0 l/m 0.0 km/h (0 Bft) N 0.00 h 1 W/m -10.4 C -5.7 C
04.02.2006 08:00 -5.6 C 70 % 1023.6 hPa 0.0 l/m 0.2 km/h (0 Bft) N 0.00 h 7 W/m -10.2 C -5.6 C
04.02.2006 09:00 -5.7 C 67 % 1024.2 hPa 0.0 l/m 0.3 km/h (0 Bft) NO 0.00 h 22 W/m -10.8 C -5.7 C
04.02.2006 10:00 -5.7 C 64 % 1024.7 hPa 0.0 l/m 0.4 km/h (0 Bft) O 0.00 h 52 W/m -11.4 C -5.7 C
04.02.2006 11:00 -5.5 C 65 % 1024.6 hPa 0.0 l/m 0.3 km/h (0 Bft) NO 0.00 h 79 W/m -11.0 C -5.5 C
04.02.2006 12:00 -5.2 C 65 % 1024.6 hPa 0.0 l/m 0.4 km/h (0 Bft) O 0.00 h 98 W/m -10.7 C -5.2 C
04.02.2006 13:00 -4.5 C 66 % 1024.5 hPa 0.0 l/m 12.7 km/h (3 Bft) O-SO 0.00 h 140 W/m -9.8 C -9.2 C
04.02.2006 14:00 -4.0 C 62 % 1024.4 hPa 0.0 l/m 6.2 km/h (2 Bft) O-SO 0.03 h 176 W/m -10.3 C -6.4 C
04.02.2006 15:00 -4.1 C 57 % 1024.7 hPa 0.0 l/m 10.0 km/h (2 Bft) O-SO 0.10 h 140 W/m -11.3 C -8.0 C
04.02.2006 16:00 -5.1 C 60 % 1025.6 hPa 0.0 l/m 10.5 km/h (2 Bft) O-SO 0.00 h 62 W/m -11.7 C -9.2 C
04.02.2006 17:00 -5.9 C 66 % 1026.1 hPa 0.0 l/m 1.2 km/h (1 Bft) O-SO 0.00 h 16 W/m -11.2 C -6.4 C
04.02.2006 18:00 -5.9 C 69 % 1026.8 hPa 0.0 l/m 0.1 km/h (0 Bft) N 0.00 h 0 W/m -10.7 C -5.9 C
04.02.2006 19:00 -5.0 C 67 % 1027.4 hPa 0.0 l/m 0.1 km/h (0 Bft) N 0.00 h 0 W/m -10.2 C -5.0 C
04.02.2006 20:00 -4.9 C 65 % 1028.0 hPa 0.0 l/m 0.4 km/h (0 Bft) O 0.00 h 0 W/m -10.4 C -4.9 C
04.02.2006 21:00 -5.0 C 64 % 1028.6 hPa 0.0 l/m 0.1 km/h (0 Bft) N 0.00 h 0 W/m -10.8 C -5.0 C
04.02.2006 22:00 -5.2 C 64 % 1028.7 hPa 0.0 l/m 0.2 km/h (0 Bft) NO 0.00 h 0 W/m -10.9 C -5.3 C
04.02.2006 23:00 -5.1 C 65 % 1028.7 hPa 0.0 l/m 0.0 km/h (0 Bft) N 0.00 h 0 W/m -10.7 C -5.1 C
05.02.2006 00:00 -5.0 C 66 % 1028.7 hPa 0.0 l/m 0.7 km/h (0 Bft) O-SO 0.00 h 0 W/m -10.4 C -5.2 C
05.02.2006 01:00 -4.9 C 68 % 1028.7 hPa 0.0 l/m 0.1 km/h (0 Bft) N 0.00 h 0 W/m -9.9 C -4.9 C
05.02.2006 02:00 -4.7 C 69 % 1028.7 hPa 0.0 l/m 0.3 km/h (0 Bft) SO 0.00 h 0 W/m -9.6 C -4.7 C
05.02.2006 03:00 -4.4 C 70 % 1028.6 hPa 0.0 l/m 1.2 km/h (1 Bft) O-SO 0.00 h 0 W/m -9.0 C -4.5 C
05.02.2006 04:00 -4.2 C 70 % 1028.6 hPa 0.0 l/m 0.2 km/h (0 Bft) O-SO 0.00 h 0 W/m -8.8 C -4.2 C
05.02.2006 05:00 -4.1 C 70 % 1028.6 hPa 0.0 l/m 0.0 km/h (0 Bft) N 0.00 h 0 W/m -8.8 C -4.1 C
05.02.2006 06:00 -3.9 C 70 % 1028.5 hPa 0.0 l/m 0.0 km/h (0 Bft) N 0.00 h 0 W/m -8.5 C -3.9 C
05.02.2006 07:00 -3.9 C 71 % 1029.0 hPa 0.0 l/m 0.0 km/h (0 Bft) N 0.00 h 3 W/m -8.4 C -3.9 C
05.02.2006 08:00 -3.0 C 69 % 1029.4 hPa 0.0 l/m 2.4 km/h (1 Bft) O 0.00 h 15 W/m -8.0 C -3.8 C
05.02.2006 09:00 -2.3 C 62 % 1029.3 hPa 0.0 l/m 7.9 km/h (2 Bft) O 0.00 h 43 W/m -8.5 C -4.8 C
05.02.2006 10:00 -1.7 C 59 % 1029.2 hPa 0.0 l/m 5.5 km/h (1 Bft) O 0.00 h 121 W/m -8.7 C -3.4 C
05.02.2006 11:00 -0.7 C 55 % 1029.1 hPa 0.0 l/m 6.8 km/h (2 Bft) O 0.13 h 220 W/m -8.6 C -2.8 C
05.02.2006 12:00 0.0 C 52 % 1029.0 hPa 0.0 l/m 11.4 km/h (2 Bft) O-SO 0.40 h 288 W/m -8.7 C -3.2 C
05.02.2006 13:00 0.7 C 49 % 1028.9 hPa 0.0 l/m 4.2 km/h (1 Bft) O-SO 0.00 h 198 W/m -8.8 C -0.3 C
05.02.2006 14:00 1.3 C 45 % 1027.8 hPa 0.0 l/m 5.4 km/h (1 Bft) O-SO 0.43 h 242 W/m -9.2 C -0.2 C
05.02.2006 15:00 1.6 C 43 % 1027.7 hPa 0.0 l/m 10.1 km/h (2 Bft) O-SO 1.00 h 256 W/m -9.6 C -1.3 C
05.02.2006 16:00 0.9 C 47 % 1027.8 hPa 0.0 l/m 5.4 km/h (1 Bft) O-SO 0.87 h 121 W/m -9.1 C -0.7 C
05.02.2006 17:00 -0.8 C 54 % 1028.3 hPa 0.0 l/m 2.7 km/h (1 Bft) SO 0.33 h 26 W/m -8.9 C -1.3 C
05.02.2006 18:00 -1.2 C 58 % 1029.2 hPa 0.0 l/m 1.9 km/h (1 Bft) S-SO 0.00 h 0 W/m -8.3 C -1.5 C
05.02.2006 19:00 -1.5 C 60 % 1029.2 hPa 0.0 l/m 4.1 km/h (1 Bft) SO 0.00 h 0 W/m -8.2 C -2.8 C
05.02.2006 20:00 -1.7 C 60 % 1029.2 hPa 0.0 l/m 5.5 km/h (1 Bft) SO 0.00 h 0 W/m -8.4 C -3.5 C
05.02.2006 21:00 -2.4 C 64 % 1029.7 hPa 0.0 l/m 1.9 km/h (1 Bft) SO 0.00 h 0 W/m -8.3 C -2.9 C
05.02.2006 22:00 -2.0 C 64 % 1029.6 hPa 0.0 l/m 1.4 km/h (1 Bft) SO 0.00 h 0 W/m -7.9 C -2.4 C
05.02.2006 23:00 -2.2 C 64 % 1029.3 hPa 0.0 l/m 0.9 km/h (0 Bft) SO 0.00 h 0 W/m -8.0 C -2.5 C
Min-Datum _ 01.02.06 30.01.06 03.02.06 - 30.01.06 - - - 04.02.06 03.02.06
_ Min-Zeit 04:36 13:47 15:45 - 00:00 - - - 10:23 10:37
Minimum _ -7.8 C 42 % 1017.7 hPa - 0.0 km/h (0 Bft) - - - -12.0 C -11.7 C
Max-Datum _ 31.01.06 02.02.06 05.02.06 30.01.06 30.01.06 - 30.01.06 05.02.06 01.02.06 31.01.06
_ Max-Zeit 14:25 08:27 21:39 00:00 12:54 - 10:03 11:33 13:36 14:34
Maximum _ 5.2 C 94 % 1030.4 hPa 0.0 l/m 22.9 km/h
O-SO (4 Bft)
- 0.05 h 453 W/m -3.6 C 5.1 C
Durchschnitt _ -3.2 C 74 % 1024.2 hPa #0.0 l/m 2.8 km/h (1 Bft) O-SO #22:03 h 138 W/m -7.4 C -4.0 C
© Kaiko 2006